createdAt,value
2018-05-13T00:01:43.861Z,35.27
2018-05-13T00:04:12.450Z,37.47
2018-05-13T00:06:41.011Z,41.20
2018-05-13T00:09:09.516Z,39.47
2018-05-13T00:11:37.931Z,38.90
2018-05-13T00:14:06.384Z,42.70
2018-05-13T00:16:35.973Z,44.07
2018-05-13T00:19:05.319Z,44.33
2018-05-13T00:21:33.818Z,42.77
2018-05-13T00:24:02.317Z,42.27
2018-05-13T00:26:30.767Z,39.10
2018-05-13T00:28:59.202Z,42.87
2018-05-13T00:31:27.644Z,45.43
2018-05-13T00:33:56.218Z,40.77
2018-05-13T00:36:24.657Z,39.17
2018-05-13T00:38:53.151Z,40.40
2018-05-13T00:41:21.568Z,37.37
2018-05-13T00:43:50.160Z,38.37
2018-05-13T00:46:18.657Z,47.67
2018-05-13T00:48:48.113Z,40.30
2018-05-13T00:51:16.529Z,42.23
2018-05-13T00:53:44.922Z,38.47
2018-05-13T00:56:13.379Z,39.57
2018-05-13T00:58:41.795Z,37.47
2018-05-13T01:01:10.408Z,36.37
2018-05-13T01:03:38.866Z,37.33
2018-05-13T01:06:07.359Z,40.27
2018-05-13T01:08:36.703Z,34.70
2018-05-13T01:11:05.468Z,41.30
2018-05-13T01:13:34.087Z,40.10
2018-05-13T01:16:02.945Z,34.90
2018-05-13T01:18:31.536Z,37.57
2018-05-13T01:21:00.030Z,35.80
2018-05-13T01:23:28.463Z,36.30
2018-05-13T01:25:56.884Z,34.97
2018-05-13T01:28:25.283Z,33.10
2018-05-13T01:30:53.764Z,35.47
2018-05-13T01:33:22.133Z,34.77
2018-05-13T01:35:50.739Z,34.33
2018-05-13T01:38:19.187Z,32.17
2018-05-13T01:40:47.681Z,37.17
2018-05-13T01:43:16.116Z,34.23
2018-05-13T01:45:44.545Z,37.47
2018-05-13T01:48:13.124Z,38.97
2018-05-13T01:50:41.534Z,34.37
2018-05-13T01:53:09.998Z,38.83
2018-05-13T01:55:38.473Z,35.13
2018-05-13T01:58:06.907Z,32.53
2018-05-13T02:00:35.347Z,34.93
2018-05-13T02:03:03.791Z,33.30
2018-05-13T02:05:32.293Z,35.00
2018-05-13T02:08:00.816Z,36.17
2018-05-13T02:10:29.286Z,38.10
2018-05-13T02:12:57.781Z,37.53
2018-05-13T02:15:26.206Z,34.57
2018-05-13T02:17:55.182Z,37.53
2018-05-13T02:20:23.621Z,32.10
2018-05-13T02:22:56.020Z,37.07
2018-05-13T02:25:24.431Z,33.63
2018-05-13T02:27:52.889Z,37.97
2018-05-13T02:30:21.343Z,35.47
2018-05-13T02:32:49.791Z,36.43
2018-05-13T02:35:18.241Z,38.77
2018-05-13T02:37:46.770Z,39.60
2018-05-13T02:40:15.222Z,38.97
2018-05-13T02:42:43.667Z,38.17
2018-05-13T02:45:12.131Z,39.67
2018-05-13T02:47:40.595Z,40.00
2018-05-13T02:50:09.085Z,40.47
2018-05-13T02:52:37.591Z,36.10
2018-05-13T02:55:05.998Z,38.97
2018-05-13T02:57:34.381Z,36.63
2018-05-13T03:00:02.764Z,37.40
2018-05-13T03:02:36.435Z,38.60
2018-05-13T03:05:04.859Z,36.80
2018-05-13T03:07:33.495Z,37.90
2018-05-13T03:10:02.825Z,34.77
2018-05-13T03:12:31.326Z,42.87
2018-05-13T03:14:59.842Z,37.93
2018-05-13T03:17:28.252Z,35.80
2018-05-13T03:19:56.778Z,35.03
2018-05-13T03:22:25.260Z,34.67
2018-05-13T03:24:53.658Z,36.00
2018-05-13T03:27:22.046Z,34.57
2018-05-13T03:29:50.460Z,41.27
2018-05-13T03:32:19.080Z,32.43
2018-05-13T03:34:47.522Z,35.03
2018-05-13T03:37:15.924Z,33.87
2018-05-13T03:39:44.327Z,39.17
2018-05-13T03:42:12.714Z,44.00
2018-05-13T03:44:41.307Z,34.27
2018-05-13T03:47:09.898Z,58.33
2018-05-13T03:49:38.311Z,34.57
2018-05-13T03:52:06.729Z,35.37
2018-05-13T03:54:35.230Z,39.23
2018-05-13T03:57:03.635Z,37.00
2018-05-13T03:59:32.115Z,40.63
2018-05-13T04:02:00.507Z,34.80
2018-05-13T04:04:28.928Z,36.77
2018-05-13T04:06:57.419Z,35.57
2018-05-13T07:22:00.263Z,14.50
2018-05-13T07:24:30.537Z,12.10
2018-05-13T07:27:00.753Z,12.10
2018-05-13T07:29:31.068Z,16.90
2018-05-13T07:32:07.004Z,14.63
2018-05-13T07:34:37.230Z,11.57
2018-05-13T07:37:06.886Z,12.20
2018-05-13T07:39:35.283Z,14.03
2018-05-13T07:42:04.075Z,12.37
2018-05-13T07:44:32.756Z,12.03
2018-05-13T07:47:01.235Z,14.83
2018-05-13T07:49:29.703Z,14.10
2018-05-13T07:51:58.063Z,18.80
2018-05-13T07:54:26.515Z,13.17
2018-05-13T07:56:54.981Z,12.50
2018-05-13T07:59:23.360Z,12.63
2018-05-13T08:01:51.846Z,12.40
2018-05-13T08:04:20.327Z,11.10
2018-05-13T08:06:48.725Z,14.20
2018-05-13T08:09:18.461Z,11.50
2018-05-13T08:12:00.011Z,13.40
2018-05-13T08:14:30.088Z,11.47
2018-05-13T08:16:59.793Z,11.43
2018-05-13T08:19:28.274Z,12.80
2018-05-13T08:21:56.838Z,12.20
2018-05-13T08:24:26.132Z,13.10
2018-05-13T08:26:54.586Z,15.87
2018-05-13T08:29:22.958Z,13.13
2018-05-13T08:31:51.526Z,12.53
2018-05-13T08:34:19.953Z,12.50
2018-05-13T08:36:49.106Z,12.43
2018-05-13T08:39:19.094Z,11.50
2018-05-13T08:41:48.113Z,11.93
2018-05-13T08:44:16.723Z,12.30
2018-05-13T08:46:45.103Z,12.07
2018-05-13T08:49:13.576Z,10.33
2018-05-13T08:51:41.989Z,11.30
2018-05-13T08:54:10.433Z,11.10
2018-05-13T08:56:38.872Z,12.67
2018-05-13T08:59:07.921Z,13.23
2018-05-13T09:01:36.555Z,17.80
2018-05-13T09:04:04.942Z,9.80
2018-05-13T09:06:33.402Z,11.03
2018-05-13T09:09:01.848Z,10.50
2018-05-13T09:11:30.250Z,11.37
2018-05-13T09:13:58.653Z,9.30
2018-05-13T09:16:27.170Z,13.63
2018-05-13T09:18:55.577Z,11.57
2018-05-13T09:21:23.966Z,9.43
2018-05-13T09:23:52.357Z,9.20
2018-05-13T09:26:20.855Z,8.53
2018-05-13T09:28:49.344Z,8.40
2018-05-13T09:31:18.676Z,8.33
2018-05-13T09:33:47.088Z,8.90
2018-05-13T09:36:15.490Z,8.30
2018-05-13T09:38:43.898Z,7.20
2018-05-13T09:41:12.318Z,8.43
2018-05-13T09:43:40.698Z,10.10
2018-05-13T09:46:09.132Z,8.00
2018-05-13T09:48:37.567Z,10.70
2018-05-13T09:51:06.028Z,7.17
2018-05-13T09:53:34.397Z,7.47
2018-05-13T09:56:02.856Z,8.43
2018-05-13T09:58:31.301Z,9.53
2018-05-13T10:00:59.680Z,8.13
2018-05-13T10:03:28.212Z,8.13
2018-05-13T10:05:56.624Z,8.97
2018-05-13T10:08:25.013Z,16.43
2018-05-13T10:10:53.464Z,14.40
2018-05-13T10:13:21.900Z,10.37
2018-05-13T10:15:50.347Z,8.23
2018-05-13T10:18:18.755Z,9.20
2018-05-13T10:20:48.111Z,8.27
2018-05-13T10:23:16.502Z,9.40
2018-05-13T10:25:44.889Z,9.00
2018-05-13T10:28:13.373Z,9.77
2018-05-13T10:30:41.794Z,10.23
2018-05-13T10:33:11.300Z,10.20
2018-05-13T10:35:39.680Z,9.20
2018-05-13T10:38:08.118Z,13.87
2018-05-13T10:40:36.604Z,12.50
2018-05-13T10:43:04.995Z,10.73
2018-05-13T10:45:33.422Z,9.10
2018-05-13T10:48:01.889Z,9.93
2018-05-13T10:50:30.320Z,9.53
2018-05-13T10:52:58.778Z,10.23
2018-05-13T10:55:27.212Z,11.83
2018-05-13T10:57:56.011Z,9.80
2018-05-13T11:00:24.432Z,9.50
2018-05-13T11:02:53.795Z,9.07
2018-05-13T11:05:22.459Z,11.70
2018-05-13T11:07:51.133Z,12.60
2018-05-13T11:10:19.853Z,12.90
2018-05-13T11:12:48.363Z,9.50
2018-05-13T11:15:16.749Z,12.73
2018-05-13T11:17:45.260Z,10.67
2018-05-13T11:20:13.816Z,8.90
2018-05-13T11:22:42.270Z,8.57
2018-05-13T11:25:10.671Z,11.70
2018-05-13T11:27:39.080Z,10.30
2018-05-13T11:30:08.026Z,11.53
2018-05-13T11:32:46.275Z,10.67
2018-05-13T11:38:33.264Z,12.33
2018-05-13T11:41:14.945Z,11.63
2018-05-13T11:46:40.703Z,11.37
2018-05-13T11:49:13.334Z,11.73
2018-05-13T11:54:23.130Z,16.97
2018-05-13T11:56:57.883Z,12.73
2018-05-13T11:59:28.886Z,17.23
2018-05-13T12:04:30.611Z,13.43
2018-05-13T12:07:00.368Z,12.53
2018-05-13T12:09:29.352Z,12.80
2018-05-13T12:12:00.865Z,16.03
2018-05-13T12:14:30.071Z,17.00
2018-05-13T12:16:58.940Z,14.93
2018-05-13T12:19:27.421Z,12.27
2018-05-13T12:21:56.780Z,15.07
2018-05-13T12:24:25.366Z,19.37
2018-05-13T12:26:53.806Z,16.03
2018-05-13T12:29:22.358Z,16.50
2018-05-13T12:31:50.806Z,18.07
2018-05-13T12:34:19.289Z,15.80
2018-05-13T12:36:47.715Z,20.97
2018-05-13T12:39:16.117Z,16.50
2018-05-13T12:41:44.642Z,20.30
2018-05-13T12:44:13.050Z,13.37
2018-05-13T12:46:41.458Z,14.47
2018-05-13T12:49:09.912Z,12.50
2018-05-13T12:51:38.320Z,14.83
2018-05-13T12:54:06.788Z,13.30
2018-05-13T12:56:39.065Z,9.77
2018-05-13T12:59:07.701Z,11.10
2018-05-13T13:01:36.489Z,10.50
2018-05-13T13:04:04.949Z,9.47
2018-05-13T13:06:33.321Z,11.63
2018-05-13T13:09:01.860Z,12.40
2018-05-13T13:11:30.278Z,11.13
2018-05-13T13:13:58.689Z,11.07
2018-05-13T13:16:27.094Z,8.80
2018-05-13T13:18:55.493Z,9.10
2018-05-13T13:21:25.086Z,9.73
2018-05-13T13:23:56.577Z,10.53
2018-05-13T13:26:25.161Z,9.50
2018-05-13T13:28:53.611Z,14.37
2018-05-13T13:31:22.114Z,11.10
2018-05-13T13:33:51.433Z,11.80
2018-05-13T13:36:19.864Z,13.13
2018-05-13T13:38:48.311Z,12.90
2018-05-13T13:41:16.941Z,11.30
2018-05-13T13:43:45.318Z,12.60
2018-05-13T13:46:13.728Z,15.23
2018-05-13T13:48:42.219Z,14.90
2018-05-13T13:51:10.635Z,9.53
2018-05-13T13:53:39.100Z,10.80
2018-05-13T13:56:07.503Z,15.53
2018-05-13T13:58:35.911Z,9.30
2018-05-13T14:01:04.338Z,10.57
2018-05-13T14:03:32.727Z,8.63
2018-05-13T14:06:01.219Z,21.90
2018-05-13T14:08:29.627Z,19.67
2018-05-13T14:10:58.033Z,22.57
2018-05-13T14:13:26.483Z,25.37
2018-05-13T14:15:54.903Z,23.00
2018-05-13T14:18:23.390Z,24.07
2018-05-13T14:20:51.792Z,26.53
2018-05-13T14:23:20.214Z,27.90
2018-05-13T14:25:48.617Z,23.97
2018-05-13T14:28:17.026Z,26.23
2018-05-13T14:30:45.453Z,28.67
2018-05-13T14:33:13.893Z,30.10
2018-05-13T14:35:42.388Z,27.90
2018-05-13T14:38:10.803Z,29.80
2018-05-13T14:40:39.244Z,35.40
2018-05-13T14:43:07.686Z,34.17
2018-05-13T14:45:36.087Z,31.60
2018-05-13T14:48:04.537Z,30.20
2018-05-13T14:50:32.949Z,31.63
2018-05-13T14:53:01.371Z,33.00
2018-05-13T14:55:29.790Z,42.33
2018-05-13T14:57:58.237Z,35.03
2018-05-13T15:00:26.720Z,45.70
2018-05-13T15:02:55.257Z,39.67
2018-05-13T15:05:23.662Z,41.97
2018-05-13T15:07:52.093Z,43.17
2018-05-13T15:10:20.562Z,39.07
2018-05-13T15:12:49.000Z,43.20
2018-05-13T15:15:17.496Z,37.37
2018-05-13T15:17:45.900Z,38.83
2018-05-13T15:20:14.311Z,40.43
2018-05-13T15:22:42.720Z,44.07
2018-05-13T15:25:11.255Z,42.10
2018-05-13T15:27:39.682Z,41.63
2018-05-13T15:30:08.111Z,40.73
2018-05-13T15:32:36.548Z,41.50
2018-05-13T15:35:04.950Z,41.03
2018-05-13T15:37:33.424Z,39.53
2018-05-13T15:40:01.900Z,40.07
2018-05-13T15:42:30.388Z,43.43
2018-05-13T15:44:58.750Z,44.67
2018-05-13T15:47:27.147Z,53.43
2018-05-13T15:49:55.622Z,53.77
2018-05-13T15:52:24.031Z,60.43
2018-05-13T15:54:52.470Z,62.20
2018-05-13T15:57:20.880Z,59.17
2018-05-13T15:59:49.273Z,63.87
2018-05-13T16:02:17.745Z,68.70
2018-05-13T16:04:46.187Z,68.70
2018-05-13T16:07:14.673Z,70.20
2018-05-13T16:09:43.148Z,74.93
2018-05-13T16:12:11.647Z,66.50
2018-05-13T16:14:40.083Z,68.30
2018-05-13T16:17:08.513Z,63.67
2018-05-13T16:19:36.929Z,70.13
2018-05-13T16:22:05.333Z,63.00
2018-05-13T16:24:33.735Z,71.73
2018-05-13T16:27:02.208Z,75.53
2018-05-13T16:29:30.627Z,66.90
2018-05-13T16:31:59.076Z,68.27
2018-05-13T16:34:27.486Z,66.50
2018-05-13T16:36:55.931Z,66.70
2018-05-13T16:39:24.935Z,65.33
2018-05-13T16:41:53.351Z,63.90
2018-05-13T16:44:21.786Z,84.30
2018-05-13T16:46:50.193Z,66.93
2018-05-13T16:49:18.732Z,70.37
2018-05-13T16:51:47.222Z,67.00
2018-05-13T16:54:15.680Z,57.43
2018-05-13T16:56:52.366Z,61.20
2018-05-13T16:59:22.742Z,58.50
2018-05-13T17:01:51.154Z,56.63
2018-05-13T17:04:19.964Z,57.93
2018-05-13T17:06:48.427Z,55.20
2018-05-13T17:09:16.921Z,59.90
2018-05-13T17:11:45.842Z,41.10
2018-05-13T17:14:14.249Z,45.17
2018-05-13T17:16:42.668Z,40.37
2018-05-13T17:19:11.135Z,34.73
2018-05-13T17:21:39.639Z,27.47
2018-05-13T17:24:08.056Z,27.03
2018-05-13T17:26:36.458Z,24.23
2018-05-13T17:29:05.011Z,22.27
2018-05-13T17:31:33.411Z,21.33
2018-05-13T17:34:01.955Z,23.67
2018-05-13T17:36:30.400Z,23.40
2018-05-13T17:38:58.816Z,25.90
2018-05-13T17:41:27.215Z,20.00
2018-05-13T17:43:54.928Z,20.17
2018-05-13T17:46:23.181Z,23.87
2018-05-13T17:48:51.683Z,30.47
2018-05-13T17:51:20.157Z,35.40
2018-05-13T17:53:48.552Z,37.40
2018-05-13T17:56:16.954Z,41.10
2018-05-13T17:58:45.406Z,38.87
2018-05-13T18:01:14.534Z,40.63
2018-05-13T18:03:42.954Z,35.40
2018-05-13T18:06:11.406Z,35.73
2018-05-13T18:08:39.847Z,32.43
2018-05-13T18:11:08.375Z,33.80
2018-05-13T18:13:36.807Z,30.53
2018-05-13T18:16:05.213Z,30.90
2018-05-13T18:18:33.716Z,35.50
2018-05-13T18:21:02.107Z,36.53
2018-05-13T18:23:30.669Z,37.13
2018-05-13T18:25:59.989Z,34.03
2018-05-13T18:28:28.513Z,29.80
2018-05-13T18:30:58.804Z,35.97
2018-05-13T18:33:28.939Z,31.37
2018-05-13T18:35:57.605Z,33.90
2018-05-13T18:38:27.437Z,29.53
2018-05-13T18:40:56.876Z,24.00
2018-05-13T18:43:29.182Z,23.83
2018-05-13T18:45:58.203Z,22.40
2018-05-13T18:48:27.371Z,24.17
2018-05-13T18:50:56.285Z,17.93
2018-05-13T18:53:25.317Z,19.97
2018-05-13T18:55:54.451Z,25.40
2018-05-13T18:58:22.909Z,23.10
2018-05-13T19:00:51.402Z,19.50
2018-05-13T19:05:54.582Z,21.30
2018-05-13T19:08:22.971Z,23.33
2018-05-13T19:10:51.381Z,25.00
2018-05-13T19:13:19.778Z,25.97
2018-05-13T19:15:48.210Z,23.73
2018-05-13T19:18:17.703Z,21.37
2018-05-13T19:20:46.236Z,22.40
2018-05-13T19:23:14.697Z,25.03
2018-05-13T19:25:43.113Z,20.13
2018-05-13T19:28:11.599Z,22.80
2018-05-13T19:30:40.064Z,18.87
2018-05-13T19:33:08.474Z,19.70
2018-05-13T19:35:36.924Z,24.47
2018-05-13T19:38:05.322Z,28.80
2018-05-13T19:40:33.730Z,26.13
2018-05-13T19:43:02.251Z,29.83
2018-05-13T19:45:30.694Z,29.20
2018-05-13T19:47:59.106Z,35.13
2018-05-13T19:50:27.584Z,40.30
2018-05-13T19:52:56.294Z,35.67
2018-05-13T19:55:24.872Z,35.37
2018-05-13T19:57:53.338Z,35.83
2018-05-13T20:00:21.778Z,43.10
2018-05-13T20:02:50.391Z,40.03
2018-05-13T20:05:18.778Z,39.20
2018-05-13T20:07:47.964Z,43.50
2018-05-13T20:10:16.380Z,46.47
2018-05-13T20:12:45.646Z,45.87
2018-05-13T20:15:15.281Z,44.33
2018-05-13T20:17:43.668Z,49.13
2018-05-13T20:20:12.034Z,50.90
2018-05-13T20:22:52.193Z,49.30
2018-05-13T20:25:21.193Z,52.30
2018-05-13T20:27:50.468Z,50.50
2018-05-13T20:30:19.858Z,59.33
2018-05-13T20:32:51.342Z,60.30
2018-05-13T20:35:23.354Z,58.60
2018-05-13T20:37:52.913Z,55.30
2018-05-13T20:40:22.450Z,62.87
2018-05-13T20:42:52.152Z,55.80
2018-05-13T20:45:20.720Z,54.70
2018-05-13T20:47:49.200Z,58.13
2018-05-13T20:50:17.618Z,54.00
2018-05-13T20:52:46.230Z,60.97
2018-05-13T20:55:16.946Z,69.90
2018-05-13T20:57:45.484Z,67.70
2018-05-13T21:00:13.924Z,71.13
2018-05-13T21:02:42.327Z,65.60
2018-05-13T21:05:10.693Z,68.20
2018-05-13T21:07:39.110Z,72.77
2018-05-13T21:10:07.477Z,61.23
2018-05-13T21:12:35.921Z,66.93
2018-05-13T21:15:04.299Z,62.50
2018-05-13T21:17:32.679Z,78.70
2018-05-13T21:20:01.042Z,74.80
2018-05-13T21:22:29.461Z,90.23
2018-05-13T21:24:57.872Z,79.43
2018-05-13T21:27:26.283Z,85.67
2018-05-13T21:29:54.717Z,98.90
2018-05-13T21:32:23.113Z,108.67
2018-05-13T21:34:51.534Z,108.13
2018-05-13T21:37:20.019Z,114.80
2018-05-13T21:39:48.446Z,87.57
2018-05-13T21:42:16.812Z,101.80
2018-05-13T21:44:45.185Z,99.00
2018-05-13T21:47:13.664Z,106.23
2018-05-13T21:49:42.020Z,126.07
2018-05-13T21:52:10.421Z,166.50
2018-05-13T21:54:38.939Z,113.37
2018-05-13T21:57:07.335Z,90.80
2018-05-13T21:59:35.708Z,111.63
2018-05-13T22:02:04.192Z,103.90
2018-05-13T22:04:32.570Z,182.90
2018-05-13T22:07:00.942Z,198.40
2018-05-13T22:09:29.413Z,163.53
2018-05-13T22:11:57.773Z,162.57
2018-05-13T22:14:26.212Z,173.63
2018-05-13T22:16:54.577Z,183.30
2018-05-13T22:19:23.026Z,168.37
2018-05-13T22:21:51.719Z,205.97
2018-05-13T22:24:20.091Z,171.23
2018-05-13T22:26:48.695Z,154.73
2018-05-13T22:29:17.074Z,163.73
2018-05-13T22:31:45.493Z,120.77
2018-05-13T22:34:13.902Z,113.13
2018-05-13T22:36:42.263Z,105.83
2018-05-13T22:39:10.741Z,163.30
2018-05-13T22:41:39.116Z,238.53
2018-05-13T22:44:07.493Z,151.97
2018-05-13T22:46:35.875Z,116.73
2018-05-13T22:49:04.256Z,121.37
2018-05-13T22:51:32.674Z,88.83
2018-05-13T22:54:01.045Z,73.83
2018-05-13T22:56:29.590Z,72.67
2018-05-13T22:58:57.992Z,71.93
2018-05-13T23:01:26.355Z,73.80
2018-05-13T23:03:54.746Z,77.20
2018-05-13T23:06:23.624Z,70.37
2018-05-13T23:08:53.088Z,70.20
2018-05-13T23:11:21.730Z,72.80
2018-05-13T23:13:50.134Z,77.43
2018-05-13T23:16:18.523Z,61.20
2018-05-13T23:18:46.930Z,59.47
2018-05-13T23:21:15.351Z,61.40
2018-05-13T23:23:43.715Z,66.13
2018-05-13T23:26:12.081Z,72.47
2018-05-13T23:28:40.441Z,65.40
2018-05-13T23:31:08.808Z,75.80
2018-05-13T23:33:37.292Z,74.90
2018-05-13T23:36:05.731Z,75.57
2018-05-13T23:38:34.096Z,70.57
2018-05-13T23:41:02.544Z,66.70
2018-05-13T23:43:30.957Z,65.37
2018-05-13T23:45:59.369Z,70.27
2018-05-13T23:48:27.721Z,80.77
2018-05-13T23:50:56.086Z,75.87
2018-05-13T23:56:07.942Z,82.53
2018-05-13T23:58:37.271Z,76.17
